CW5752 Weather Reports


Display with metric or nautical units.
time (UTC)temp
F
wind
direction
speed
MPH
gust
MPH
rain 1hr
in
rain 24hr
in
rain mn
in
humidity
%
barometer
mb
20210727225521 90 0.0 0.0 0.00 0.00 0.00 64 1015.0
20210727224522 89 0.0 0.0 0.00 0.00 0.00 64 1015.2
20210727223516 90 0.0 0.0 0.00 0.00 0.00 61 1014.9
20210727222521 90 0.0 0.0 0.00 0.00 0.00 64 1014.8
20210727221523 90 240 0.0 1.0 0.00 0.00 0.00 63 1015.1
20210727220521 90 0.0 0.0 0.00 0.00 0.00 65 1015.4
20210727215521 91 0.0 1.0 0.00 0.00 0.00 63 1015.6
20210727214522 90 0.0 0.0 0.00 0.00 0.00 63 1015.6
20210727213521 91 0.0 0.0 0.00 0.00 0.00 64 1015.6
20210727212515 91 0.0 0.0 0.00 0.00 0.00 62 1015.6
20210727211522 91 266 0.0 1.0 0.00 0.00 0.00 66 1015.8
20210727210521 90 0.0 4.0 0.00 0.00 0.00 61 1015.8
20210727205521 90 0.0 0.0 0.00 0.00 0.00 60 1015.9
20210727204521 89 0.0 0.0 0.00 0.00 0.00 65 1016.3
20210727203524 91 0.0 0.0 0.00 0.00 0.00 64 1016.2
20210727202516 91 0.0 0.0 0.00 0.00 0.00 62 1016.3
20210727201515 90 0.0 2.0 0.00 0.00 0.00 65 1016.5
20210727200521 90 206 0.0 5.0 0.00 0.00 0.00 60 1016.6
20210727195521 90 360 0.0 1.0 0.00 0.00 0.00 62 1016.7
20210727194521 90 0.0 3.0 0.00 0.00 0.00 62 1016.7
20210727193522 90 319 0.0 4.0 0.00 0.00 0.00 62 1016.8
20210727192522 90 345 0.0 4.0 0.00 0.00 0.00 64 1017.0
20210727191519 89 326 0.0 5.0 0.00 0.00 0.00 63 1016.9
20210727190515 89 0.0 3.0 0.00 0.00 0.00 63 1017.0
20210727185521 89 59 0.0 3.0 0.00 0.00 0.00 62 1017.0
20210727184522 89 21 0.0 2.0 0.00 0.00 0.00 60 1017.2
20210727183522 89 0.0 4.0 0.00 0.00 0.00 66 1017.3
20210727182522 89 347 0.0 3.0 0.00 0.00 0.00 64 1017.2
20210727181521 89 26 0.0 3.0 0.00 0.00 0.00 63 1017.2
20210727180516 89 331 0.0 3.0 0.00 0.00 0.00 65 1017.2
20210727175515 89 266 0.0 2.0 0.00 0.00 0.00 68 1017.3
20210727174521 88 266 0.0 4.0 0.00 0.00 0.00 67 1017.3
20210727173521 88 327 0.0 2.0 0.00 0.00 0.00 66 1017.3
20210727172521 88 327 0.0 4.0 0.00 0.00 0.00 68 1017.3
20210727171521 88 325 0.0 2.0 0.00 0.00 0.00 67 1017.3
20210727170522 88 325 0.0 2.0 0.00 0.00 0.00 71 1017.2
20210727165515 88 325 0.0 1.0 0.00 0.00 0.00 66 1017.2
20210727164520 87 327 0.0 5.0 0.00 0.00 0.00 68 1017.1
20210727163521 87 327 0.0 3.0 0.00 0.00 0.00 69 1017.2
20210727162520 86 0.0 4.0 0.00 0.00 0.00 75 1017.1
20210727161521 85 321 0.0 5.0 0.00 0.00 0.00 75 1017.0
20210727160521 85 296 0.0 4.0 0.00 0.00 0.00 77 1017.0
20210727155521 85 302 0.0 2.0 0.00 0.00 0.00 74 1017.0
20210727154516 85 313 0.0 2.0 0.00 0.00 0.00 74 1017.0
20210727153521 84 0.0 0.0 0.00 0.00 0.00 79 1016.9
20210727152521 82 0.0 1.0 0.00 0.00 0.00 78 1016.8
20210727151520 82 0.0 0.0 0.00 0.00 0.00 77 1016.7
20210727150520 81 318 0.0 2.0 0.00 0.00 0.00 83 1016.8
20210727145521 80 323 0.0 1.0 0.00 0.00 0.00 87 1016.9
20210727144521 79 0.0 0.0 0.00 0.00 0.00 89 1016.7
20210727143515 78 11 0.0 1.0 0.00 0.00 0.00 93 1016.7
20210727142522 77 0.0 0.0 0.00 0.00 0.00 94 1016.7
20210727141523 76 0.0 0.0 0.00 0.00 0.00 96 1016.8
20210727140520 75 0.0 0.0 0.00 0.00 0.00 97 1016.8
20210727135521 74 26 0.0 2.0 0.00 0.00 0.00 97 1016.9
20210727134521 74 0.0 0.0 0.00 0.00 0.00 97 1017.0
20210727133516 73 0.0 1.0 0.00 0.00 0.00 97 1016.9
20210727132516 72 0.0 0.0 0.00 0.00 0.00 97 1016.8
20210727131521 71 0.0 0.0 0.00 0.00 0.00 97 1016.7
20210727130522 71 0.0 0.0 0.00 0.00 0.00 97 1016.7
20210727125521 70 0.0 0.0 0.00 0.00 0.00 97 1016.6
20210727124522 69 0.0 0.0 0.00 0.00 0.00 97 1016.6
20210727123521 68 0.0 0.0 0.00 0.00 0.00 97 1016.5
20210727122516 68 0.0 0.0 0.00 0.00 0.00 97 1016.5
20210727121516 67 0.0 0.0 0.00 0.00 0.00 97 1016.5
20210727120522 67 0.0 0.0 0.00 0.00 0.00 97 1016.4
20210727115521 67 0.0 0.0 0.00 0.00 0.00 97 1016.4
20210727114520 67 0.0 0.0 0.00 0.00 0.00 97 1016.4
20210727113521 66 0.0 0.0 0.00 0.00 0.00 97 1016.4
20210727112520 66 0.0 0.0 0.00 0.00 0.00 97 1016.1
20210727111515 66 0.0 0.0 0.00 0.00 0.00 97 1016.0
20210727110521 66 0.0 0.0 0.00 0.00 0.00 97 1015.9
20210727105520 66 0.0 0.0 0.00 0.00 0.00 97 1015.9
20210727104520 66 0.0 0.0 0.00 0.00 0.00 97 1016.0
20210727103521 66 0.0 0.0 0.00 0.00 0.00 97 1015.9
20210727102520 65 0.0 0.0 0.00 0.00 0.00 97 1016.0
20210727101521 66 0.0 0.0 0.00 0.00 0.00 97 1015.9
20210727100515 65 0.0 0.0 0.00 0.00 0.00 97 1015.8
20210727095521 65 0.0 0.0 0.00 0.00 0.00 96 1015.9
20210727094522 66 0.0 0.0 0.00 0.00 0.00 97 1015.9
20210727093520 66 0.0 0.0 0.00 0.00 0.00 97 1015.8
20210727092521 66 0.0 0.0 0.00 0.00 0.00 97 1015.9
20210727091521 66 0.0 0.0 0.00 0.00 0.00 97 1015.8
20210727090521 65 0.0 0.0 0.00 0.00 0.00 97 1015.8
20210727085515 66 0.0 0.0 0.00 0.00 0.00 96 1015.8
20210727084520 67 0.0 0.0 0.00 0.00 0.00 97 1015.8
20210727083520 67 0.0 0.0 0.00 0.00 0.00 97 1015.7
20210727082520 67 0.0 0.0 0.00 0.00 0.00 97 1015.8
20210727081520 67 0.0 0.0 0.00 0.00 0.00 97 1015.8
20210727080520 67 0.0 0.0 0.00 0.00 0.00 97 1015.7
20210727075515 66 0.0 0.0 0.00 0.00 0.00 96 1015.6
20210727074516 67 0.0 0.0 0.00 0.00 0.00 96 1015.6
20210727073521 67 0.0 0.0 0.00 0.00 0.00 96 1015.6
20210727072520 67 0.0 0.0 0.00 0.00 0.00 96 1015.8
20210727071520 67 0.0 0.0 0.00 0.00 0.00 96 1015.8
20210727070520 67 0.0 0.0 0.00 0.00 0.00 96 1015.9
20210727065520 67 0.0 0.0 0.00 0.00 0.00 96 1015.9
20210727064515 67 0.0 0.0 0.00 0.00 0.00 95 1015.8
20210727063516 68 0.0 0.0 0.00 0.00 0.00 96 1015.9
20210727062520 68 0.0 0.0 0.00 0.00 0.00 96 1015.9
20210727061520 68 0.0 0.0 0.00 0.00 0.00 96 1016.0
20210727060520 68 0.0 0.0 0.00 0.00 0.00 95 1016.1
20210727055521 68 0.0 0.0 0.00 0.00 0.00 95 1016.2
20210727054520 68 0.0 0.0 0.00 0.00 0.00 95 1016.1
20210727053515 68 0.0 0.0 0.00 0.00 0.00 95 1016.4
20210727052521 69 0.0 0.0 0.00 0.00 0.00 94 1016.3
20210727051520 70 0.0 0.0 0.00 0.00 0.00 94 1016.4
20210727050520 70 0.0 0.0 0.00 0.00 0.00 94 1016.4
20210727045523 70 0.0 0.0 0.00 0.00 0.00 94 1016.4
20210727044517 71 0.0 0.0 0.00 0.00 0.00 94 1016.2
20210727043523 71 0.0 0.0 0.00 0.00 0.00 94 1016.3
20210727042522 71 0.0 0.0 0.00 0.00 0.00 94 1016.2
20210727041524 71 0.0 0.0 0.00 0.00 0.00 94 1016.0
20210727040522 71 0.0 0.0 0.00 0.00 0.00 94 1016.1
20210727035522 71 0.0 0.0 0.00 0.00 0.00 94 1016.1
20210727034518 71 0.0 0.0 0.00 0.00 0.00 93 1015.9
20210727033517 72 0.0 0.0 0.00 0.00 0.00 93 1015.9
20210727032522 72 0.0 0.0 0.00 0.00 0.00 93 1015.7
20210727031524 72 0.0 0.0 0.00 0.00 0.00 93 1015.8
20210727030522 73 0.0 0.0 0.00 0.00 0.00 92 1015.7
20210727025526 73 0.0 0.0 0.00 0.00 0.00 92 1015.5
20210727024522 73 0.0 0.0 0.00 0.00 0.00 92 1015.3
20210727023519 74 0.0 0.0 0.00 0.00 0.00 91 1015.3
20210727022517 74 0.0 0.0 0.00 0.00 0.00 89 1015.1
20210727021523 75 0.0 0.0 0.00 0.00 0.00 89 1015.0
20210727020523 75 0.0 0.0 0.00 0.00 0.00 87 1014.9
20210727015524 76 0.0 0.0 0.00 0.00 0.00 86 1014.7
20210727014524 77 0.0 0.0 0.00 0.00 0.00 84 1014.7
20210727013524 78 0.0 0.0 0.00 0.00 0.00 82 1014.6
20210727012517 79 0.0 0.0 0.00 0.00 0.00 80 1014.6
20210727011522 80 0.0 0.0 0.00 0.00 0.00 78 1014.5
20210727010522 81 0.0 0.0 0.00 0.00 0.00 75 1014.5
20210727005525 81 0.0 0.0 0.00 0.00 0.00 71 1014.5
20210727004522 82 0.0 0.0 0.00 0.00 0.00 71 1014.4
20210727003522 84 0.0 0.0 0.00 0.00 0.00 71 1014.4
20210727002523 85 0.0 0.0 0.00 0.00 0.00 69 1014.4
20210727001518 85 0.0 0.0 0.00 0.00 0.00 67 1014.1
20210727000522 86 0.0 0.0 0.00 0.00 0.00 66 1014.1
20210726235522 87 39 0.0 1.0 0.00 0.00 0.00 62 1014.0
20210726234522 88 0.0 0.0 0.00 0.00 0.00 63 1014.1
20210726233522 88 35 0.0 2.0 0.00 0.00 0.00 61 1014.0
20210726232522 88 0.0 0.0 0.00 0.00 0.00 65 1014.2
20210726231523 88 0.0 0.0 0.00 0.00 0.00 64 1014.2
20210726230519 88 360 0.0 1.0 0.00 0.00 0.00 63 1014.3